Time;durP1;ratioP1;P1;durP2;ratioP2;P2;SDS_P1;SDS_P2;PMS_P1;PMS_P2;Temp;Humidity;BMP_temperature;BMP_pressure;BME280_temperature;BME280_humidity;BME280_pressure;Samples;Min_cycle;Max_cycle;Signal;HPM_P1;HPM_P2
2022/06/18 00:01:51;;;;;;;7.05;4.90;;;;;;;23.15;61.05;94951.97;5081077;28;20209;-76
2022/06/18 00:04:21;;;;;;;5.30;4.80;;;;;;;23.14;60.97;94952.16;5082304;28;20618;-76
2022/06/18 00:06:51;;;;;;;6.28;5.60;;;;;;;23.13;61.01;94955.78;5072691;28;20198;-76
2022/06/18 00:09:22;;;;;;;5.35;4.93;;;;;;;23.11;61.24;94958.63;5079838;28;20198;-78
2022/06/18 00:14:34;;;;;;;5.95;5.25;;;;;;;23.02;61.33;94941.63;5082257;28;20247;-75
2022/06/18 00:17:02;;;;;;;5.45;4.97;;;;;;;23.01;61.52;94940.00;5072887;28;20703;-75
2022/06/18 00:19:28;;;;;;;5.93;5.32;;;;;;;22.97;61.20;94934.41;5085250;28;20275;-75
2022/06/18 00:21:55;;;;;;;6.85;5.60;;;;;;;22.99;61.44;94937.59;5082899;28;20194;-75
2022/06/18 00:24:24;;;;;;;6.32;5.50;;;;;;;22.97;61.55;94934.41;5074457;28;20204;-75
2022/06/18 00:26:50;;;;;;;5.95;5.30;;;;;;;22.90;61.43;94927.63;5076328;28;20182;-76
2022/06/18 00:29:19;;;;;;;6.05;5.50;;;;;;;22.92;61.78;94925.59;5075519;28;20205;-76
2022/06/18 00:31:47;;;;;;;10.35;5.32;;;;;;;22.86;61.63;94919.38;5077635;28;20197;-76
2022/06/18 00:34:14;;;;;;;6.35;5.57;;;;;;;22.87;61.79;94920.97;5081368;28;20190;-76
2022/06/18 00:36:43;;;;;;;6.05;5.13;;;;;;;22.87;61.74;94928.78;5072536;28;20611;-76
2022/06/18 00:39:14;;;;;;;5.90;5.40;;;;;;;22.85;61.73;94932.63;5073171;28;20195;-76
2022/06/18 00:41:44;;;;;;;5.72;4.90;;;;;;;22.83;61.93;94926.81;5080542;28;20203;-77
2022/06/18 00:44:23;;;;;;;5.10;4.65;;;;;;;22.81;62.01;94924.44;5075069;28;20189;-76
2022/06/18 00:47:02;;;;;;;6.15;5.45;;;;;;;22.74;61.92;94919.22;5073612;28;20197;-75
2022/06/18 00:49:35;;;;;;;5.65;5.15;;;;;;;22.63;62.13;94906.84;5079301;28;20581;-76
2022/06/18 00:52:09;;;;;;;5.78;5.20;;;;;;;22.72;62.11;94925.66;5078903;28;20280;-76
2022/06/18 00:54:41;;;;;;;5.28;4.82;;;;;;;22.66;62.29;94923.88;5086574;28;20276;-76
2022/06/18 00:57:14;;;;;;;5.90;5.30;;;;;;;22.49;61.90;94900.06;5072809;28;20225;-77
2022/06/18 00:59:44;;;;;;;5.97;5.07;;;;;;;22.63;62.22;94924.31;5076281;28;20198;-76
2022/06/18 01:02:14;;;;;;;5.55;4.70;;;;;;;22.61;61.87;94929.72;5073712;28;20198;-76
2022/06/18 01:04:41;;;;;;;8.30;5.82;;;;;;;22.61;62.31;94924.50;5073257;28;20198;-76
2022/06/18 01:07:23;;;;;;;6.15;5.57;;;;;;;22.57;62.16;94917.28;5077926;28;20201;-76
2022/06/18 01:09:52;;;;;;;5.63;4.93;;;;;;;22.54;62.16;94923.75;5072227;28;20193;-77
2022/06/18 01:12:22;;;;;;;6.03;5.35;;;;;;;22.53;62.32;94920.31;5077698;28;20562;-75
2022/06/18 01:15:04;;;;;;;5.93;5.40;;;;;;;22.47;62.31;94915.94;5082030;28;20703;-76
2022/06/18 01:17:33;;;;;;;5.40;4.90;;;;;;;22.50;62.43;94925.16;5075503;28;20226;-75
2022/06/18 01:20:04;;;;;;;8.48;4.95;;;;;;;22.48;62.42;94929.75;5075793;28;20190;-75
2022/06/18 01:22:39;;;;;;;6.63;5.28;;;;;;;22.41;62.43;94923.75;5080621;28;20608;-76
2022/06/18 01:25:09;;;;;;;5.93;5.43;;;;;;;22.44;62.57;94931.97;5072901;28;20224;-75
2022/06/18 01:27:37;;;;;;;5.32;4.82;;;;;;;22.44;62.66;94928.56;5073798;28;20197;-75
2022/06/18 01:30:06;;;;;;;4.95;4.55;;;;;;;22.39;62.58;94921.38;5079975;28;20205;-75
2022/06/18 01:32:33;;;;;;;11.05;5.22;;;;;;;22.36;62.48;94916.56;5071298;28;20190;-75
2022/06/18 01:35:01;;;;;;;5.72;5.22;;;;;;;22.38;62.39;94918.97;5073363;28;20190;-75
2022/06/18 01:37:29;;;;;;;6.35;5.03;;;;;;;22.36;62.48;94920.97;5079610;28;20230;-75
2022/06/18 01:39:56;;;;;;;5.88;4.80;;;;;;;22.29;62.60;94918.41;5072942;28;20201;-75
2022/06/18 01:42:27;;;;;;;5.80;5.10;;;;;;;22.31;62.63;94932.00;5074053;28;20436;-75
2022/06/18 01:44:58;;;;;;;6.03;4.82;;;;;;;22.30;62.62;94925.19;5079206;28;20190;-76
2022/06/18 01:47:30;;;;;;;5.65;4.63;;;;;;;22.28;62.68;94916.81;5075896;28;20202;-75
2022/06/18 01:50:02;;;;;;;5.57;4.80;;;;;;;22.27;62.60;94925.59;5074439;28;20186;-77
2022/06/18 01:52:33;;;;;;;5.35;4.95;;;;;;;22.23;62.70;94921.78;5085855;28;20661;-75
2022/06/18 01:55:02;;;;;;;5.30;4.85;;;;;;;22.22;62.73;94921.00;5081089;28;20206;-77
2022/06/18 01:57:34;;;;;;;6.20;4.70;;;;;;;22.16;62.87;94916.63;5073768;28;20217;-75
2022/06/18 02:00:07;;;;;;;5.40;4.90;;;;;;;22.12;62.85;94912.81;5078259;28;20259;-76
2022/06/18 02:02:34;;;;;;;5.53;4.90;;;;;;;22.16;62.97;94927.03;5080499;28;20194;-76
2022/06/18 02:05:01;;;;;;;4.80;4.30;;;;;;;22.15;62.86;94914.19;5075335;28;20634;-76
2022/06/18 02:07:28;;;;;;;6.30;4.93;;;;;;;22.14;62.96;94918.63;5083302;28;20208;-76
2022/06/18 02:10:00;;;;;;;5.22;4.55;;;;;;;22.13;62.88;94922.22;5082219;28;20192;-75
2022/06/18 02:12:33;;;;;;;5.30;4.90;;;;;;;22.09;62.88;94913.19;5073017;28;20277;-76
2022/06/18 02:15:03;;;;;;;6.27;4.70;;;;;;;22.05;62.92;94910.19;5071861;28;20190;-77
2022/06/18 02:17:31;;;;;;;5.93;5.30;;;;;;;22.03;63.07;94904.38;5080717;28;20233;-76
2022/06/18 02:20:09;;;;;;;5.15;4.60;;;;;;;22.04;63.06;94907.78;5073003;28;20650;-75
2022/06/18 02:22:43;;;;;;;5.55;5.00;;;;;;;21.99;62.96;94905.00;5072835;28;20267;-77
2022/06/18 02:25:11;;;;;;;5.30;4.80;;;;;;;21.89;63.13;94902.81;5069956;28;20679;-77
2022/06/18 02:27:40;;;;;;;5.30;4.80;;;;;;;21.98;63.19;94925.03;5074794;28;20680;-76
2022/06/18 02:30:15;;;;;;;7.40;5.25;;;;;;;21.97;63.21;94927.81;5086964;28;20204;-77
2022/06/18 02:32:50;;;;;;;4.93;4.53;;;;;;;21.88;63.28;94913.41;5071565;28;20197;-75
2022/06/18 02:35:17;;;;;;;5.65;4.70;;;;;;;21.90;63.21;94912.22;5073755;28;20185;-76
2022/06/18 02:37:44;;;;;;;5.40;4.50;;;;;;;21.90;63.26;94917.44;5069672;28;20221;-76
2022/06/18 02:40:17;;;;;;;5.45;4.30;;;;;;;21.89;63.32;94920.22;5077874;28;20205;-76
2022/06/18 02:42:45;;;;;;;5.43;4.80;;;;;;;21.87;63.29;94923.03;5075670;28;20190;-76
2022/06/18 02:45:13;;;;;;;6.28;5.05;;;;;;;21.85;63.29;94921.63;5075290;28;20197;-75
2022/06/18 02:47:40;;;;;;;6.45;4.57;;;;;;;21.83;63.26;94916.63;5071697;28;20202;-76
2022/06/18 02:50:09;;;;;;;5.78;5.18;;;;;;;21.84;63.42;94920.03;5081655;28;20201;-76
2022/06/18 02:52:40;;;;;;;6.43;4.68;;;;;;;21.76;63.50;94908.84;5074294;28;20617;-75
2022/06/18 02:55:19;;;;;;;5.90;4.73;;;;;;;21.81;63.41;94910.84;5076522;28;20198;-76
2022/06/18 02:57:49;;;;;;;5.13;4.63;;;;;;;21.79;63.46;94916.22;5079975;28;20224;-75
2022/06/18 03:00:16;;;;;;;5.13;4.60;;;;;;;21.78;63.50;94911.22;5072749;28;20186;-75
2022/06/18 03:02:43;;;;;;;5.53;4.05;;;;;;;21.77;63.31;94905.22;5077784;28;20696;-77
2022/06/18 03:05:19;;;;;;;5.07;4.57;;;;;;;21.77;63.31;94910.44;5075237;28;20194;-76
2022/06/18 03:07:46;;;;;;;5.70;4.67;;;;;;;21.79;63.42;94912.81;5074374;28;20217;-75
2022/06/18 03:12:58;;;;;;;5.10;4.20;;;;;;;21.78;63.56;94912.03;5080564;28;20266;-76
2022/06/18 03:15:25;;;;;;;4.95;4.35;;;;;;;21.79;63.40;94915.44;5070116;28;20201;-76
2022/06/18 03:17:53;;;;;;;5.57;5.05;;;;;;;21.81;63.41;94915.25;5076350;28;20320;-76
2022/06/18 03:20:22;;;;;;;4.88;4.35;;;;;;;21.83;63.31;94919.22;5073671;28;20194;-76
2022/06/18 03:22:50;;;;;;;4.47;3.95;;;;;;;21.84;63.38;94912.22;5076367;28;20217;-76
2022/06/18 03:25:17;;;;;;;8.35;4.95;;;;;;;21.83;63.23;94908.81;5076631;28;20200;-76
2022/06/18 03:27:44;;;;;;;7.40;4.57;;;;;;;21.88;63.12;94918.63;5082030;28;20197;-77
2022/06/18 03:30:13;;;;;;;6.15;4.10;;;;;;;21.88;63.16;94923.84;5073591;28;20232;-76
2022/06/18 03:32:40;;;;;;;6.57;4.55;;;;;;;21.89;63.21;94920.22;5078453;28;20202;-76
2022/06/18 03:35:08;;;;;;;5.00;4.35;;;;;;;21.93;62.96;94927.44;5074535;28;20185;-76
2022/06/18 03:37:34;;;;;;;4.55;4.15;;;;;;;21.97;62.88;94926.03;5072659;28;20214;-77
2022/06/18 03:40:01;;;;;;;6.53;4.23;;;;;;;22.00;62.95;94920.41;5074279;28;20190;-75
2022/06/18 03:42:28;;;;;;;4.47;4.07;;;;;;;22.04;63.00;94928.63;5083519;28;20196;-75
2022/06/18 03:44:55;;;;;;;6.70;3.90;;;;;;;22.08;62.96;94926.44;5073431;28;20187;-75
2022/06/18 03:47:23;;;;;;;5.97;4.65;;;;;;;22.04;62.88;94915.59;5080573;28;20661;-75
2022/06/18 03:49:50;;;;;;;5.53;4.32;;;;;;;22.14;62.94;94936.84;5078373;28;20676;-76
2022/06/18 03:52:17;;;;;;;6.95;4.18;;;;;;;22.17;62.92;94936.44;5074371;28;20239;-76
2022/06/18 03:54:44;;;;;;;5.22;3.80;;;;;;;22.23;62.77;94945.25;5069857;28;20206;-79
2022/06/18 03:57:17;;;;;;;4.97;4.40;;;;;;;22.26;62.63;94937.84;5076124;28;20735;-78
2022/06/18 03:59:44;;;;;;;5.13;4.25;;;;;;;22.24;62.43;94926.81;5083404;28;20201;-78
2022/06/18 04:02:10;;;;;;;4.70;4.05;;;;;;;22.22;62.16;94915.78;5075644;28;20209;-76
2022/06/18 04:04:39;;;;;;;4.50;4.18;;;;;;;22.45;62.19;94940.59;5077341;28;20198;-80
2022/06/18 04:07:06;;;;;;;4.10;3.80;;;;;;;22.37;61.97;94919.97;5082821;28;20787;-81
2022/06/18 04:09:35;;;;;;;4.30;3.97;;;;;;;22.27;61.55;94896.94;5076393;28;20194;-79
2022/06/18 04:12:02;;;;;;;4.53;4.13;;;;;;;22.33;61.46;94895.34;5082618;28;20229;-79
2022/06/18 04:14:29;;;;;;;6.13;4.35;;;;;;;22.61;61.59;94944.56;5084123;28;20300;-81
2022/06/18 04:16:55;;;;;;;6.90;4.18;;;;;;;22.67;61.60;94946.34;5075618;28;20229;-81
2022/06/18 04:19:22;;;;;;;4.53;3.85;;;;;;;22.71;61.38;94940.53;5077414;28;20611;-82
2022/06/18 04:21:50;;;;;;;4.35;3.80;;;;;;;22.77;60.97;94938.88;5072473;28;20186;-80
2022/06/18 04:24:18;;;;;;;5.45;4.07;;;;;;;22.82;61.11;94951.31;5070911;28;20580;-79
2022/06/18 04:26:45;;;;;;;4.40;4.00;;;;;;;22.88;60.94;94945.25;5074488;28;20288;-80
2022/06/18 04:29:12;;;;;;;7.22;4.13;;;;;;;22.86;60.66;94935.03;5076586;28;20189;-80
2022/06/18 04:31:39;;;;;;;6.75;4.10;;;;;;;22.97;60.61;94950.06;5070023;28;20204;-83
2022/06/18 04:34:06;;;;;;;3.95;3.65;;;;;;;23.04;60.50;94950.03;5080523;28;20574;-78
2022/06/18 04:36:36;;;;;;;5.03;3.50;;;;;;;23.03;60.39;94943.22;5083114;28;20595;-87
2022/06/18 04:39:05;;;;;;;4.30;3.80;;;;;;;22.99;60.03;94919.34;5080759;28;20190;-86
2022/06/18 04:41:32;;;;;;;3.80;3.50;;;;;;;22.94;60.23;94906.13;5083596;28;20202;-86
2022/06/18 04:43:59;;;;;;;4.20;3.60;;;;;;;23.28;59.80;94943.28;5091468;28;20197;-88
2022/06/18 04:46:26;;;;;;;3.95;3.50;;;;;;;23.22;59.60;94923.22;5088975;28;20193;-89
2022/06/18 04:48:53;;;;;;;6.38;3.72;;;;;;;23.39;59.23;94941.78;5085106;28;20202;-88
2022/06/18 04:51:20;;;;;;;3.75;3.45;;;;;;;23.44;59.06;94947.97;5090368;28;20206;-86
2022/06/18 04:53:47;;;;;;;4.25;3.58;;;;;;;23.32;58.96;94920.16;5092461;28;20560;-87
2022/06/18 04:56:16;;;;;;;3.97;3.60;;;;;;;23.54;58.67;94953.53;5084959;28;20532;-86
2022/06/18 04:58:43;;;;;;;3.92;3.50;;;;;;;23.60;58.70;94945.88;5076408;28;20203;-86
2022/06/18 05:01:17;;;;;;;4.78;3.78;;;;;;;23.59;58.29;94939.06;5075820;28;20200;-84
2022/06/18 05:03:44;;;;;;;3.40;3.10;;;;;;;23.56;58.16;94929.81;5068568;28;20221;-88
2022/06/18 05:06:11;;;;;;;4.22;3.78;;;;;;;23.42;58.30;94902.22;5073898;28;20692;-86
2022/06/18 05:08:39;;;;;;;5.43;3.67;;;;;;;23.80;57.90;94948.38;5075179;28;20186;-86
2022/06/18 05:11:06;;;;;;;4.10;3.80;;;;;;;23.80;57.67;94930.09;5091431;28;20201;-86
2022/06/18 05:13:34;;;;;;;4.22;3.83;;;;;;;24.17;59.32;94950.03;5093570;28;20202;-88
2022/06/18 05:16:02;;;;;;;4.78;3.53;;;;;;;24.55;61.32;94950.91;5086698;28;20193;-85
2022/06/18 05:18:33;;;;;;;5.10;3.65;;;;;;;25.01;61.50;94959.00;5083338;28;20236;-86
2022/06/18 05:21:00;;;;;;;5.25;3.90;;;;;;;25.59;61.88;94962.06;5077126;28;20190;-85
2022/06/18 05:23:27;;;;;;;3.92;3.53;;;;;;;26.23;61.35;94965.69;5082569;28;20185;-86
2022/06/18 05:25:58;;;;;;;6.45;3.30;;;;;;;26.88;60.25;94949.78;5076788;28;20269;-86
2022/06/18 05:28:25;;;;;;;3.38;2.92;;;;;;;27.68;58.50;94962.03;5081494;28;20215;-86
2022/06/18 05:30:53;;;;;;;2.97;2.67;;;;;;;28.30;56.51;94932.22;5087729;28;20680;-86
2022/06/18 05:33:20;;;;;;;2.70;2.50;;;;;;;29.25;54.48;94973.16;5077360;28;20277;-84
2022/06/18 05:35:47;;;;;;;3.28;2.53;;;;;;;30.05;52.91;94967.28;5078021;28;20190;-87
2022/06/18 05:38:16;;;;;;;5.75;2.85;;;;;;;30.85;50.90;94968.09;5077733;28;20260;-87
2022/06/18 05:40:43;;;;;;;3.38;2.83;;;;;;;31.55;48.91;94960.63;5074829;28;20205;-85
2022/06/18 05:43:11;;;;;;;2.50;2.30;;;;;;;32.27;47.35;94962.25;5079265;28;20956;-84
2022/06/18 05:45:38;;;;;;;3.95;2.28;;;;;;;33.10;45.60;94971.56;5085338;28;20193;-88
2022/06/18 05:48:09;;;;;;;10.85;3.25;;;;;;;33.65;45.48;94973.16;5078745;28;20194;-76
2022/06/18 05:50:36;;;;;;;8.57;3.47;;;;;;;33.88;45.04;94981.47;5083965;28;20198;-74
2022/06/18 05:53:03;;;;;;;5.68;3.63;;;;;;;33.98;44.77;94986.72;5072283;28;20928;-75
2022/06/18 05:55:29;;;;;;;14.90;3.45;;;;;;;34.05;43.79;94989.84;5075826;28;20190;-75
2022/06/18 05:57:58;;;;;;;10.10;3.35;;;;;;;34.08;42.63;94985.84;5075160;28;20214;-73
2022/06/18 06:00:28;;;;;;;5.15;3.10;;;;;;;34.12;42.85;94986.88;5072997;28;20197;-74
2022/06/18 06:02:55;;;;;;;9.50;4.00;;;;;;;34.16;43.52;94987.91;5077588;28;20198;-74
2022/06/18 06:05:23;;;;;;;17.67;4.13;;;;;;;34.20;43.31;94989.72;5085548;28;20201;-75
2022/06/18 06:07:50;;;;;;;5.50;3.05;;;;;;;34.23;42.94;94991.03;5087629;28;20668;-76
2022/06/18 06:13:06;;;;;;;9.48;3.10;;;;;;;34.33;42.70;94988.28;5067351;28;20232;-76
2022/06/18 06:15:33;;;;;;;17.27;3.83;;;;;;;34.40;42.31;94982.63;5070533;28;20186;-75
2022/06/18 06:18:00;;;;;;;7.88;3.35;;;;;;;34.47;42.17;94982.31;5086568;28;20239;-75
2022/06/18 06:20:32;;;;;;;11.07;2.65;;;;;;;34.63;41.43;94981.91;5077534;28;20452;-78
2022/06/18 06:22:59;;;;;;;5.93;2.92;;;;;;;34.84;41.04;94947.09;5067201;28;20198;-78
2022/06/18 06:25:26;;;;;;;2.90;2.70;;;;;;;35.61;40.36;94981.50;5067461;28;20193;-73
2022/06/18 06:27:55;;;;;;;5.70;3.03;;;;;;;36.18;39.38;94977.72;5067502;28;20217;-77
2022/06/18 06:30:22;;;;;;;6.38;2.60;;;;;;;36.76;38.40;94975.66;5076978;28;20197;-79
2022/06/18 06:32:49;;;;;;;13.20;2.50;;;;;;;37.34;37.46;94967.00;5087182;28;20186;-75
2022/06/18 06:35:16;;;;;;;7.90;2.70;;;;;;;37.99;36.95;94979.19;5087421;28;20190;-75
2022/06/18 06:37:44;;;;;;;2.70;2.50;;;;;;;38.59;35.23;94984.88;5086944;28;20227;-77
2022/06/18 06:40:15;;;;;;;4.30;2.58;;;;;;;39.17;34.59;94992.97;5087340;28;20182;-78
2022/06/18 06:42:44;;;;;;;6.93;2.40;;;;;;;39.43;33.43;94952.91;5087338;28;20193;-78
2022/06/18 06:45:17;;;;;;;2.88;2.17;;;;;;;40.17;32.71;94992.13;5087586;28;20216;-77
2022/06/18 06:47:44;;;;;;;2.25;2.15;;;;;;;40.61;32.02;94994.38;5087301;28;20201;-75
2022/06/18 06:50:12;;;;;;;2.78;2.10;;;;;;;41.02;31.13;94986.78;5087033;28;20678;-76
2022/06/18 06:52:39;;;;;;;5.45;2.15;;;;;;;41.37;31.19;94987.38;5087473;28;20580;-75
2022/06/18 06:58:04;;;;;;;3.28;2.45;;;;;;;42.07;29.47;94966.94;5093370;28;20734;-75
2022/06/18 07:00:33;;;;;;;3.40;2.45;;;;;;;42.52;29.67;94990.34;5093691;28;20200;-76
2022/06/18 07:03:00;;;;;;;2.28;2.17;;;;;;;42.78;28.52;94981.22;5093430;28;20202;-76
2022/06/18 07:05:27;;;;;;;3.08;2.28;;;;;;;43.19;28.11;95000.97;5093914;28;20203;-77
2022/06/18 07:07:54;;;;;;;2.80;2.22;;;;;;;43.47;28.15;94998.38;5093428;28;20228;-79
2022/06/18 07:10:22;;;;;;;2.22;2.03;;;;;;;43.75;27.52;94993.03;5093906;28;20185;-79
2022/06/18 07:12:49;;;;;;;2.60;2.38;;;;;;;43.94;27.00;94982.41;5093731;28;20192;-79
2022/06/18 07:15:17;;;;;;;2.95;2.30;;;;;;;44.24;26.83;94982.06;5093371;28;20575;-80
2022/06/18 07:17:43;;;;;;;3.30;2.30;;;;;;;44.14;26.97;94940.19;5092183;28;20337;-79
2022/06/18 07:20:14;;;;;;;2.47;2.28;;;;;;;44.50;26.32;94959.97;5092269;28;20178;-78
2022/06/18 07:22:41;;;;;;;4.20;2.38;;;;;;;44.83;26.21;94978.53;5093676;28;20196;-81
2022/06/18 07:25:10;;;;;;;1.98;1.88;;;;;;;44.99;25.46;94984.69;5093682;28;20188;-80
2022/06/18 07:27:39;;;;;;;7.05;2.50;;;;;;;45.07;25.63;94974.88;5093799;28;20201;-84
2022/06/18 07:30:08;;;;;;;3.88;2.72;;;;;;;45.20;24.85;94992.53;5093498;28;20189;-83
2022/06/18 07:32:36;;;;;;;2.40;2.20;;;;;;;45.28;24.81;94988.06;5093390;28;20189;-83
2022/06/18 07:35:04;;;;;;;2.65;2.40;;;;;;;45.34;24.66;94994.78;5092555;28;20570;-86
2022/06/18 07:37:31;;;;;;;2.67;2.20;;;;;;;45.39;24.18;94983.69;5093015;28;20212;-81
2022/06/18 07:39:58;;;;;;;5.60;2.20;;;;;;;45.33;24.07;94968.88;5092929;28;20637;-79
2022/06/18 07:42:25;;;;;;;8.18;2.58;;;;;;;45.26;23.83;94945.19;5092790;28;20189;-81
2022/06/18 07:44:54;;;;;;;2.50;2.30;;;;;;;45.49;23.74;94976.97;5090875;28;20181;-76
2022/06/18 07:47:21;;;;;;;4.15;2.35;;;;;;;45.65;23.43;94993.13;5092718;28;20193;-75
2022/06/18 07:49:48;;;;;;;2.80;2.05;;;;;;;45.62;24.01;94989.19;5092549;28;20640;-77
2022/06/18 07:52:17;;;;;;;2.10;2.00;;;;;;;45.40;23.36;94952.03;5092500;28;20228;-78
2022/06/18 07:54:44;;;;;;;2.50;2.30;;;;;;;45.65;23.64;94991.19;5092696;28;20276;-78
2022/06/18 07:57:11;;;;;;;3.08;2.15;;;;;;;45.64;23.17;94989.63;5092520;28;20201;-79
2022/06/18 07:59:39;;;;;;;2.95;2.08;;;;;;;45.64;23.45;94989.63;5092312;28;20193;-78
2022/06/18 08:02:07;;;;;;;2.40;2.20;;;;;;;45.64;23.31;94996.94;5092255;28;20190;-79
2022/06/18 08:04:34;;;;;;;2.25;2.08;;;;;;;45.59;23.60;94981.00;5092193;28;20185;-78
2022/06/18 08:07:01;;;;;;;3.85;2.15;;;;;;;45.58;23.52;94980.22;5092177;28;20195;-77
2022/06/18 08:09:28;;;;;;;2.60;2.20;;;;;;;45.30;23.12;94948.00;5090237;28;20281;-75
2022/06/18 08:11:58;;;;;;;4.28;2.42;;;;;;;45.48;23.51;94973.47;5092429;28;20181;-78
2022/06/18 08:14:25;;;;;;;4.10;2.25;;;;;;;45.49;23.45;94987.78;5092495;28;20185;-77
2022/06/18 08:16:52;;;;;;;2.53;2.33;;;;;;;45.43;23.10;94983.78;5092666;28;20197;-81
2022/06/18 08:19:20;;;;;;;2.45;2.30;;;;;;;45.37;23.23;94988.63;5091952;28;20236;-79
2022/06/18 08:21:47;;;;;;;2.97;2.67;;;;;;;45.30;22.87;94978.47;5092354;28;20185;-81
2022/06/18 08:24:18;;;;;;;4.47;2.45;;;;;;;45.12;23.38;94969.19;5092516;28;20190;-78
2022/06/18 08:26:47;;;;;;;2.40;2.20;;;;;;;45.17;22.85;94978.94;5091995;28;20193;-78
2022/06/18 08:29:17;;;;;;;2.60;2.40;;;;;;;45.07;22.92;94982.19;5092105;28;20280;-78
2022/06/18 08:31:45;;;;;;;2.40;2.20;;;;;;;44.99;22.92;94981.97;5092209;28;20189;-77
2022/06/18 08:34:12;;;;;;;2.50;2.30;;;;;;;44.89;22.95;94984.44;5090886;28;20690;-79
2022/06/18 08:36:44;;;;;;;3.03;2.47;;;;;;;44.78;23.44;94987.69;5091634;28;20192;-77
2022/06/18 08:39:11;;;;;;;2.53;2.33;;;;;;;44.63;23.08;94987.66;5091592;28;20612;-76
2022/06/18 08:41:57;;;;;;;2.72;2.53;;;;;;;44.32;23.60;94964.94;5091545;28;20193;-76
2022/06/18 08:44:54;;;;;;;2.85;2.30;;;;;;;44.17;23.20;94974.53;5091860;28;20242;-85
2022/06/18 08:47:34;;;;;;;3.10;2.78;;;;;;;43.88;25.19;94974.91;5091674;28;20195;-81
2022/06/18 08:50:33;;;;;;;5.95;2.72;;;;;;;43.06;25.54;94973.28;5091345;28;20656;-78
2022/06/18 08:53:25;;;;;;;3.78;2.60;;;;;;;42.21;26.51;94969.31;5089171;28;20193;-83
2022/06/18 08:55:59;;;;;;;5.85;2.80;;;;;;;41.50;27.02;94966.78;5092004;28;20189;-83
2022/06/18 08:58:34;;;;;;;7.97;3.40;;;;;;;40.86;27.86;94955.13;5089898;28;20224;-84
2022/06/18 09:01:06;;;;;;;5.65;3.20;;;;;;;40.15;27.86;94954.13;5091032;28;20194;-78
2022/06/18 09:03:41;;;;;;;6.43;3.05;;;;;;;39.61;27.79;94952.56;5091072;28;20680;-79
2022/06/18 09:06:24;;;;;;;10.30;3.15;;;;;;;39.06;29.16;94957.69;5091804;28;20193;-84
2022/06/18 09:09:01;;;;;;;5.72;3.10;;;;;;;38.80;29.09;94957.63;5095244;28;20285;-79
2022/06/18 09:12:02;;;;;;;5.13;3.10;;;;;;;38.47;29.45;94957.16;5092036;28;20652;-83
2022/06/18 09:14:37;;;;;;;4.18;3.35;;;;;;;38.20;29.33;94953.53;5009457;28;20713;-85
2022/06/18 09:17:10;;;;;;;5.53;3.22;;;;;;;37.93;29.44;94961.72;5008263;28;20196;-79
2022/06/18 09:19:40;;;;;;;5.03;2.92;;;;;;;37.66;29.79;94950.81;5009101;28;20231;-81
2022/06/18 09:22:12;;;;;;;5.13;3.15;;;;;;;37.40;30.10;94947.16;5009040;28;20301;-83
2022/06/18 09:24:43;;;;;;;4.97;3.22;;;;;;;37.14;30.35;94944.22;5008049;28;20185;-85
2022/06/18 09:27:21;;;;;;;3.38;3.03;;;;;;;36.89;30.55;94948.19;5009176;28;20199;-83
2022/06/18 09:29:52;;;;;;;3.20;2.92;;;;;;;36.62;30.91;94955.09;5009415;28;20231;-82
2022/06/18 09:32:27;;;;;;;5.60;3.05;;;;;;;36.31;31.41;94951.38;5008853;28;20196;-83
2022/06/18 09:35:00;;;;;;;3.97;3.38;;;;;;;36.09;31.41;94941.38;5007304;28;20200;-79
2022/06/18 09:37:33;;;;;;;7.85;3.28;;;;;;;35.73;31.67;94939.28;5006780;28;20233;-79
2022/06/18 09:40:04;;;;;;;5.28;3.65;;;;;;;35.55;31.61;94948.88;5008607;28;20216;-79
2022/06/18 09:42:38;;;;;;;4.10;2.95;;;;;;;35.32;31.89;94949.69;5008902;28;20216;-82
2022/06/18 09:45:10;;;;;;;4.82;3.40;;;;;;;35.08;32.24;94947.13;5008707;28;20384;-80
2022/06/18 09:47:40;;;;;;;9.18;3.72;;;;;;;34.93;32.64;94948.88;5017881;28;20204;-85
2022/06/18 09:50:15;;;;;;;3.88;3.35;;;;;;;34.76;33.18;94956.53;5090514;28;20752;-84
2022/06/18 09:52:45;;;;;;;3.95;3.10;;;;;;;34.52;33.23;94951.19;5091355;28;20181;-84
2022/06/18 09:55:18;;;;;;;4.60;2.78;;;;;;;34.44;33.80;94967.72;5090494;28;20589;-85
2022/06/18 09:57:50;;;;;;;4.40;3.00;;;;;;;34.33;34.00;94966.25;5091053;28;20182;-84
2022/06/18 10:00:20;;;;;;;3.70;2.67;;;;;;;34.19;34.49;94953.59;5090577;28;20266;-87
2022/06/18 10:02:51;;;;;;;3.72;2.80;;;;;;;34.16;34.75;94959.50;5090940;28;20200;-86
2022/06/18 10:08:09;;;;;;;3.00;2.80;;;;;;;34.04;34.83;94950.31;5090845;28;20688;-85
2022/06/18 10:10:41;;;;;;;3.20;2.60;;;;;;;34.01;34.86;94945.56;5090659;28;20284;-86
2022/06/18 10:13:27;;;;;;;3.28;2.97;;;;;;;34.01;34.85;94946.34;5090637;28;20579;-86
2022/06/18 10:15:58;;;;;;;3.75;3.08;;;;;;;33.93;34.79;94929.13;5091207;28;20197;-83
2022/06/18 10:18:43;;;;;;;3.40;3.10;;;;;;;33.90;34.54;94923.59;5090071;28;20240;-84
2022/06/18 10:21:19;;;;;;;4.60;2.92;;;;;;;33.97;34.87;94941.88;5092849;28;20185;-87
2022/06/18 10:23:58;;;;;;;2.75;2.53;;;;;;;33.78;34.98;94918.66;5090662;28;20181;-87
2022/06/18 10:26:36;;;;;;;5.72;2.92;;;;;;;33.76;34.98;94914.69;5090450;28;20197;-84
2022/06/18 10:29:12;;;;;;;4.18;2.85;;;;;;;33.70;35.22;94927.22;5090706;28;20181;-85
2022/06/18 10:31:52;;;;;;;3.13;2.83;;;;;;;33.57;35.21;94928.63;5094998;28;20190;-86
2022/06/18 10:34:37;;;;;;;6.80;3.67;;;;;;;33.43;35.88;94933.75;5094721;28;20272;-86
2022/06/18 10:37:19;;;;;;;4.53;2.72;;;;;;;33.27;35.96;94947.38;5094325;28;20189;-84
2022/06/18 10:39:58;;;;;;;3.38;3.13;;;;;;;33.05;36.01;94940.59;5094823;28;20235;-86
2022/06/18 10:42:43;;;;;;;7.53;3.80;;;;;;;32.89;36.67;95010.59;5094120;28;20194;-85
2022/06/18 10:45:18;;;;;;;11.38;4.68;;;;;;;32.58;38.20;94978.91;5096063;28;20637;-93
2022/06/18 10:47:49;;;;;;;9.25;3.80;;;;;;;32.16;39.90;94934.19;5097177;28;20200;-92
2022/06/18 10:50:20;;;;;;;7.80;3.80;;;;;;;32.06;40.75;94961.47;5095009;28;20201;-88
2022/06/18 10:52:58;;;;;;;6.22;3.60;;;;;;;31.85;41.93;94954.59;5095087;28;20189;-85
2022/06/18 10:55:25;;;;;;;6.57;3.40;;;;;;;31.64;41.97;94954.56;5093938;28;20692;-86
2022/06/18 10:57:54;;;;;;;7.45;3.80;;;;;;;31.43;42.67;94937.09;5094209;28;20194;-82
2022/06/18 11:00:24;;;;;;;6.32;3.72;;;;;;;31.35;43.34;94951.63;5093526;28;20256;-84
2022/06/18 11:02:53;;;;;;;7.45;3.58;;;;;;;31.18;43.93;94949.19;5094094;28;20661;-84
2022/06/18 11:05:26;;;;;;;4.65;3.33;;;;;;;31.08;44.38;94956.28;5093941;28;20259;-85
2022/06/18 11:07:55;;;;;;;4.63;3.50;;;;;;;30.96;45.02;94964.44;5093947;28;20194;-80
2022/06/18 11:10:34;;;;;;;3.85;3.22;;;;;;;30.81;45.42;94974.94;5093650;28;20564;-85
2022/06/18 11:13:05;;;;;;;6.97;4.32;;;;;;;30.59;45.51;95007.53;5093941;28;20644;-85
2022/06/18 11:15:34;;;;;;;9.23;4.70;;;;;;;30.36;45.94;95006.09;5093167;28;20197;-84
2022/06/18 11:18:06;;;;;;;7.28;4.43;;;;;;;30.14;46.76;95000.94;5093511;28;20260;-81
2022/06/18 11:20:33;;;;;;;8.32;4.72;;;;;;;29.93;47.56;94981.47;5093389;28;20198;-83
2022/06/18 11:23:04;;;;;;;8.68;4.25;;;;;;;29.76;47.79;94993.19;5093856;28;20292;-79
2022/06/18 11:25:36;;;;;;;7.82;3.42;;;;;;;29.16;47.50;94924.59;5093367;28;20667;-80
2022/06/18 11:28:16;;;;;;;6.00;3.63;;;;;;;29.38;47.97;94968.56;5093847;28;20181;-73
2022/06/18 11:30:46;;;;;;;9.35;4.18;;;;;;;29.33;48.28;94966.66;5093303;28;20641;-77
2022/06/18 11:33:23;;;;;;;8.23;4.28;;;;;;;29.23;48.22;94970.00;5093255;28;20182;-77
2022/06/18 11:35:51;;;;;;;5.85;4.15;;;;;;;29.15;48.51;94973.06;5092953;28;20185;-78
2022/06/18 11:38:26;;;;;;;5.80;3.60;;;;;;;29.02;48.05;94965.53;5093239;28;20254;-77
2022/06/18 11:40:55;;;;;;;4.22;3.83;;;;;;;29.02;48.30;94973.44;5092479;28;20189;-77
2022/06/18 11:43:34;;;;;;;8.57;4.00;;;;;;;28.90;49.00;94970.09;5093261;28;20190;-76
2022/06/18 11:46:07;;;;;;;5.03;3.58;;;;;;;28.78;48.86;94972.84;5092837;28;20186;-77
2022/06/18 11:48:49;;;;;;;5.85;3.60;;;;;;;28.58;49.29;94957.59;5092820;28;20666;-79
2022/06/18 11:51:24;;;;;;;4.50;3.53;;;;;;;28.62;49.53;94969.22;5092955;28;20587;-80
2022/06/18 11:53:57;;;;;;;3.53;3.08;;;;;;;28.55;49.58;94962.56;5092646;28;20280;-79
2022/06/18 11:56:32;;;;;;;5.70;2.85;;;;;;;28.56;49.75;94967.56;5092941;28;20193;-84
2022/06/18 11:59:10;;;;;;;6.53;3.42;;;;;;;28.57;49.86;94968.38;5093113;28;20209;-80
2022/06/18 12:01:44;;;;;;;3.83;3.53;;;;;;;28.21;49.68;94902.09;5093068;28;20246;-83
2022/06/18 12:04:19;;;;;;;4.95;3.35;;;;;;;28.44;50.14;94946.63;5092176;28;20199;-81